sensor_id;sensor_type;location;lat;lon;timestamp;pressure;altitude;pressure_sealevel;temperature;humidity
21640;BME280;10981;45.462;10.974;2023-07-22T07:39:54;100415.16;;;24.56;100.00
21640;BME280;10981;45.462;10.974;2023-07-22T07:42:27;100412.75;;;24.73;100.00
21640;BME280;10981;45.462;10.974;2023-07-22T07:44:55;100417.34;;;24.85;100.00
21640;BME280;10981;45.462;10.974;2023-07-22T07:47:24;100415.22;;;25.05;100.00
21640;BME280;10981;45.462;10.974;2023-07-22T07:49:52;100424.00;;;25.12;100.00
21640;BME280;10981;45.462;10.974;2023-07-22T07:52:20;100422.59;;;25.10;100.00
21640;BME280;10981;45.462;10.974;2023-07-22T07:54:49;100426.53;;;25.07;100.00
21640;BME280;10981;45.462;10.974;2023-07-22T07:57:17;100414.25;;;25.00;100.00
21640;BME280;10981;45.462;10.974;2023-07-22T07:59:46;100409.78;;;25.12;100.00
21640;BME280;10981;45.462;10.974;2023-07-22T08:02:14;100415.25;;;25.48;100.00
21640;BME280;10981;45.462;10.974;2023-07-22T08:04:43;100415.88;;;25.73;100.00
21640;BME280;10981;45.462;10.974;2023-07-22T08:07:15;100414.72;;;25.69;100.00
21640;BME280;10981;45.462;10.974;2023-07-22T08:09:46;100404.38;;;25.73;100.00
21640;BME280;10981;45.462;10.974;2023-07-22T08:12:18;100402.50;;;25.85;100.00
21640;BME280;10981;45.462;10.974;2023-07-22T08:14:46;100413.31;;;25.78;100.00
21640;BME280;10981;45.462;10.974;2023-07-22T08:17:15;100418.53;;;25.50;100.00
21640;BME280;10981;45.462;10.974;2023-07-22T08:19:43;100416.78;;;25.25;100.00
21640;BME280;10981;45.462;10.974;2023-07-22T08:22:12;100423.34;;;25.29;100.00
21640;BME280;10981;45.462;10.974;2023-07-22T08:24:40;100425.31;;;25.34;100.00
21640;BME280;10981;45.462;10.974;2023-07-22T08:27:09;100419.59;;;25.30;100.00
21640;BME280;10981;45.462;10.974;2023-07-22T08:29:39;100417.00;;;25.42;100.00
21640;BME280;10981;45.462;10.974;2023-07-22T08:32:08;100417.69;;;25.49;100.00
21640;BME280;10981;45.462;10.974;2023-07-22T08:34:39;100424.63;;;25.69;100.00
21640;BME280;10981;45.462;10.974;2023-07-22T08:37:07;100422.41;;;25.66;100.00
21640;BME280;10981;45.462;10.974;2023-07-22T08:39:35;100426.28;;;25.82;100.00
21640;BME280;10981;45.462;10.974;2023-07-22T08:42:04;100426.75;;;25.90;100.00
21640;BME280;10981;45.462;10.974;2023-07-22T08:44:38;100422.06;;;25.98;100.00
21640;BME280;10981;45.462;10.974;2023-07-22T08:47:16;100425.59;;;26.10;100.00
21640;BME280;10981;45.462;10.974;2023-07-22T08:49:49;100424.56;;;26.35;100.00
21640;BME280;10981;45.462;10.974;2023-07-22T08:52:18;100426.13;;;26.59;100.00
21640;BME280;10981;45.462;10.974;2023-07-22T08:54:47;100420.28;;;27.44;100.00
21640;BME280;10981;45.462;10.974;2023-07-22T08:57:19;100419.75;;;28.15;100.00
21640;BME280;10981;45.462;10.974;2023-07-22T08:59:48;100424.25;;;28.49;100.00
21640;BME280;10981;45.462;10.974;2023-07-22T09:02:17;100420.69;;;29.42;100.00
21640;BME280;10981;45.462;10.974;2023-07-22T09:04:46;100412.38;;;29.81;100.00
21640;BME280;10981;45.462;10.974;2023-07-22T09:07:15;100407.25;;;29.80;100.00
21640;BME280;10981;45.462;10.974;2023-07-22T09:09:47;100421.81;;;29.46;100.00
21640;BME280;10981;45.462;10.974;2023-07-22T09:12:17;100415.41;;;29.25;100.00
21640;BME280;10981;45.462;10.974;2023-07-22T09:14:46;100417.44;;;29.35;100.00
21640;BME280;10981;45.462;10.974;2023-07-22T09:17:15;100415.91;;;29.49;100.00
21640;BME280;10981;45.462;10.974;2023-07-22T09:19:43;100419.13;;;29.46;97.13
21640;BME280;10981;45.462;10.974;2023-07-22T09:22:12;100412.97;;;29.51;96.36
21640;BME280;10981;45.462;10.974;2023-07-22T09:24:40;100411.75;;;29.69;94.32
21640;BME280;10981;45.462;10.974;2023-07-22T09:27:09;100408.16;;;29.91;95.31
21640;BME280;10981;45.462;10.974;2023-07-22T09:29:38;100406.41;;;30.12;94.78
21640;BME280;10981;45.462;10.974;2023-07-22T09:32:09;100387.59;;;30.27;91.90
21640;BME280;10981;45.462;10.974;2023-07-22T09:34:39;100380.53;;;30.16;92.15
21640;BME280;10981;45.462;10.974;2023-07-22T09:37:21;100386.19;;;29.39;87.52
21640;BME280;10981;45.462;10.974;2023-07-22T09:39:49;100382.75;;;29.16;96.12
21640;BME280;10981;45.462;10.974;2023-07-22T09:42:25;100379.13;;;28.78;93.99
21640;BME280;10981;45.462;10.974;2023-07-22T09:44:55;100370.75;;;28.52;94.44
21640;BME280;10981;45.462;10.974;2023-07-22T09:47:24;100372.66;;;28.13;94.49
21640;BME280;10981;45.462;10.974;2023-07-22T09:49:52;100393.16;;;27.80;100.00
21640;BME280;10981;45.462;10.974;2023-07-22T09:52:20;100412.22;;;27.32;100.00
21640;BME280;10981;45.462;10.974;2023-07-22T09:54:51;100421.28;;;26.97;100.00
21640;BME280;10981;45.462;10.974;2023-07-22T09:57:21;100415.16;;;26.61;100.00
21640;BME280;10981;45.462;10.974;2023-07-22T09:59:51;100392.97;;;26.25;100.00
21640;BME280;10981;45.462;10.974;2023-07-22T10:02:22;100390.75;;;25.98;100.00
21640;BME280;10981;45.462;10.974;2023-07-22T10:04:52;100412.03;;;25.81;100.00
21640;BME280;10981;45.462;10.974;2023-07-22T10:07:22;100418.13;;;25.76;100.00
21640;BME280;10981;45.462;10.974;2023-07-22T10:09:54;100424.03;;;25.67;100.00
21640;BME280;10981;45.462;10.974;2023-07-22T10:12:24;100410.09;;;25.04;100.00
21640;BME280;10981;45.462;10.974;2023-07-22T10:14:52;100423.84;;;24.33;100.00
21640;BME280;10981;45.462;10.974;2023-07-22T10:17:22;100441.06;;;23.93;100.00
21640;BME280;10981;45.462;10.974;2023-07-22T10:19:52;100441.81;;;23.75;100.00
21640;BME280;10981;45.462;10.974;2023-07-22T10:22:21;100424.28;;;23.54;100.00
21640;BME280;10981;45.462;10.974;2023-07-22T10:24:50;100436.28;;;23.45;100.00
21640;BME280;10981;45.462;10.974;2023-07-22T10:27:20;100426.84;;;23.42;100.00
21640;BME280;10981;45.462;10.974;2023-07-22T10:29:49;100442.03;;;23.42;100.00
21640;BME280;10981;45.462;10.974;2023-07-22T10:32:18;100443.25;;;23.46;100.00
21640;BME280;10981;45.462;10.974;2023-07-22T10:34:47;100429.28;;;23.44;100.00
21640;BME280;10981;45.462;10.974;2023-07-22T10:37:18;100415.16;;;23.37;100.00
21640;BME280;10981;45.462;10.974;2023-07-22T10:39:47;100431.72;;;23.45;100.00
21640;BME280;10981;45.462;10.974;2023-07-22T10:42:25;100446.84;;;23.58;100.00
21640;BME280;10981;45.462;10.974;2023-07-22T10:44:53;100459.78;;;23.61;100.00
21640;BME280;10981;45.462;10.974;2023-07-22T10:47:34;100473.19;;;23.55;100.00
21640;BME280;10981;45.462;10.974;2023-07-22T10:50:08;100474.94;;;23.36;100.00
21640;BME280;10981;45.462;10.974;2023-07-22T10:52:45;100482.38;;;23.13;100.00
21640;BME280;10981;45.462;10.974;2023-07-22T10:55:16;100489.34;;;23.14;100.00
21640;BME280;10981;45.462;10.974;2023-07-22T10:57:49;100486.06;;;23.12;100.00
21640;BME280;10981;45.462;10.974;2023-07-22T11:00:19;100480.16;;;23.10;100.00
21640;BME280;10981;45.462;10.974;2023-07-22T11:03:11;100476.31;;;22.93;100.00
21640;BME280;10981;45.462;10.974;2023-07-22T11:05:53;100489.88;;;22.91;100.00
21640;BME280;10981;45.462;10.974;2023-07-22T11:08:44;100464.28;;;22.70;100.00
21640;BME280;10981;45.462;10.974;2023-07-22T11:11:12;100457.53;;;22.61;100.00
21640;BME280;10981;45.462;10.974;2023-07-22T11:13:41;100472.31;;;22.57;100.00
21640;BME280;10981;45.462;10.974;2023-07-22T11:16:13;100464.13;;;22.45;100.00
21640;BME280;10981;45.462;10.974;2023-07-22T11:18:45;100450.59;;;22.26;100.00
21640;BME280;10981;45.462;10.974;2023-07-22T11:21:13;100440.78;;;22.20;100.00
21640;BME280;10981;45.462;10.974;2023-07-22T11:23:41;100435.44;;;22.13;100.00
21640;BME280;10981;45.462;10.974;2023-07-22T11:26:10;100406.34;;;22.12;100.00
21640;BME280;10981;45.462;10.974;2023-07-22T11:28:39;100386.66;;;22.19;100.00
21640;BME280;10981;45.462;10.974;2023-07-22T11:31:09;100383.97;;;22.33;100.00
21640;BME280;10981;45.462;10.974;2023-07-22T11:33:41;100378.44;;;22.48;100.00
21640;BME280;10981;45.462;10.974;2023-07-22T11:36:12;100393.31;;;22.76;100.00
21640;BME280;10981;45.462;10.974;2023-07-22T11:38:41;100413.66;;;23.09;100.00
21640;BME280;10981;45.462;10.974;2023-07-22T11:41:09;100437.88;;;23.78;100.00
21640;BME280;10981;45.462;10.974;2023-07-22T11:43:39;100444.94;;;24.60;100.00
21640;BME280;10981;45.462;10.974;2023-07-22T11:46:08;100439.28;;;25.24;100.00
21640;BME280;10981;45.462;10.974;2023-07-22T11:48:36;100428.84;;;25.76;100.00
21640;BME280;10981;45.462;10.974;2023-07-22T11:51:07;100412.22;;;26.10;100.00
21640;BME280;10981;45.462;10.974;2023-07-22T11:53:38;100412.41;;;26.44;100.00
21640;BME280;10981;45.462;10.974;2023-07-22T11:56:07;100403.16;;;26.75;100.00
21640;BME280;10981;45.462;10.974;2023-07-22T11:58:35;100394.66;;;26.96;100.00
21640;BME280;10981;45.462;10.974;2023-07-22T12:01:09;100395.41;;;27.37;100.00
21640;BME280;10981;45.462;10.974;2023-07-22T12:03:40;100377.44;;;27.71;100.00
21640;BME280;10981;45.462;10.974;2023-07-22T12:06:08;100368.97;;;27.80;100.00
21640;BME280;10981;45.462;10.974;2023-07-22T12:08:47;100373.41;;;27.91;100.00
21640;BME280;10981;45.462;10.974;2023-07-22T12:11:20;100362.88;;;28.24;100.00
21640;BME280;10981;45.462;10.974;2023-07-22T12:14:08;100354.53;;;28.69;100.00
21640;BME280;10981;45.462;10.974;2023-07-22T12:16:43;100360.28;;;28.78;98.55
21640;BME280;10981;45.462;10.974;2023-07-22T12:19:12;100354.91;;;28.78;96.45
21640;BME280;10981;45.462;10.974;2023-07-22T12:21:40;100353.25;;;28.99;98.18
21640;BME280;10981;45.462;10.974;2023-07-22T12:24:08;100346.09;;;29.43;99.53
21640;BME280;10981;45.462;10.974;2023-07-22T12:26:42;100348.09;;;29.63;92.38
21640;BME280;10981;45.462;10.974;2023-07-22T12:29:10;100359.81;;;29.84;87.99
21640;BME280;10981;45.462;10.974;2023-07-22T12:31:39;100361.28;;;30.02;90.05
21640;BME280;10981;45.462;10.974;2023-07-22T12:34:07;100355.06;;;29.91;86.56
21640;BME280;10981;45.462;10.974;2023-07-22T12:36:35;100355.00;;;29.86;78.93
21640;BME280;10981;45.462;10.974;2023-07-22T12:39:04;100341.19;;;29.77;77.20
21640;BME280;10981;45.462;10.974;2023-07-22T12:41:32;100342.22;;;29.71;77.79
21640;BME280;10981;45.462;10.974;2023-07-22T12:44:01;100319.94;;;29.86;78.99
21640;BME280;10981;45.462;10.974;2023-07-22T12:46:29;100324.84;;;29.94;78.61
21640;BME280;10981;45.462;10.974;2023-07-22T12:48:57;100319.78;;;30.08;84.15
21640;BME280;10981;45.462;10.974;2023-07-22T12:51:26;100319.63;;;30.36;88.41
21640;BME280;10981;45.462;10.974;2023-07-22T12:53:54;100326.19;;;30.55;77.44
21640;BME280;10981;45.462;10.974;2023-07-22T12:56:23;100336.44;;;30.53;74.15
21640;BME280;10981;45.462;10.974;2023-07-22T12:58:52;100325.94;;;30.77;80.84
21640;BME280;10981;45.462;10.974;2023-07-22T13:01:20;100337.81;;;30.71;72.97
21640;BME280;10981;45.462;10.974;2023-07-22T13:03:48;100332.19;;;30.78;74.30
21640;BME280;10981;45.462;10.974;2023-07-22T13:06:17;100325.94;;;30.82;71.94
21640;BME280;10981;45.462;10.974;2023-07-22T13:08:45;100326.22;;;30.76;76.77
21640;BME280;10981;45.462;10.974;2023-07-22T13:11:13;100317.81;;;30.52;73.39
21640;BME280;10981;45.462;10.974;2023-07-22T13:13:42;100309.50;;;30.74;71.76
21640;BME280;10981;45.462;10.974;2023-07-22T13:16:10;100310.81;;;30.71;76.28
21640;BME280;10981;45.462;10.974;2023-07-22T13:18:38;100317.81;;;30.57;69.80
21640;BME280;10981;45.462;10.974;2023-07-22T13:21:06;100315.44;;;30.86;73.35
21640;BME280;10981;45.462;10.974;2023-07-22T13:23:35;100317.09;;;31.18;79.55
21640;BME280;10981;45.462;10.974;2023-07-22T13:26:03;100321.41;;;31.09;71.87
21640;BME280;10981;45.462;10.974;2023-07-22T13:28:31;100313.31;;;31.29;73.35
21640;BME280;10981;45.462;10.974;2023-07-22T13:31:01;100321.16;;;31.10;72.55
21640;BME280;10981;45.462;10.974;2023-07-22T13:33:30;100322.19;;;30.94;72.54
21640;BME280;10981;45.462;10.974;2023-07-22T13:35:58;100320.31;;;30.94;68.55
21640;BME280;10981;45.462;10.974;2023-07-22T13:38:26;100319.78;;;31.18;77.20
21640;BME280;10981;45.462;10.974;2023-07-22T13:40:55;100321.97;;;31.06;73.63
21640;BME280;10981;45.462;10.974;2023-07-22T13:43:23;100328.44;;;31.25;73.29
21640;BME280;10981;45.462;10.974;2023-07-22T13:45:51;100327.38;;;31.21;70.01
21640;BME280;10981;45.462;10.974;2023-07-22T13:48:19;100325.16;;;31.54;73.22
21640;BME280;10981;45.462;10.974;2023-07-22T13:50:48;100327.03;;;31.85;73.45
21640;BME280;10981;45.462;10.974;2023-07-22T13:53:19;100327.75;;;32.01;68.91
21640;BME280;10981;45.462;10.974;2023-07-22T13:55:47;100323.72;;;31.98;66.96
21640;BME280;10981;45.462;10.974;2023-07-22T13:58:20;100320.16;;;32.08;73.79
21640;BME280;10981;45.462;10.974;2023-07-22T14:00:48;100324.50;;;32.09;76.01
21640;BME280;10981;45.462;10.974;2023-07-22T14:03:17;100327.53;;;31.92;66.56
21640;BME280;10981;45.462;10.974;2023-07-22T14:05:46;100334.91;;;31.50;65.26
21640;BME280;10981;45.462;10.974;2023-07-22T14:08:15;100328.69;;;31.55;73.76
21640;BME280;10981;45.462;10.974;2023-07-22T14:10:43;100334.09;;;31.50;66.54
21640;BME280;10981;45.462;10.974;2023-07-22T14:13:11;100337.34;;;31.46;66.71
21640;BME280;10981;45.462;10.974;2023-07-22T14:15:42;100346.25;;;31.52;68.64
21640;BME280;10981;45.462;10.974;2023-07-22T14:18:10;100340.31;;;31.35;67.66
21640;BME280;10981;45.462;10.974;2023-07-22T14:20:41;100343.31;;;31.12;67.61
21640;BME280;10981;45.462;10.974;2023-07-22T14:23:09;100341.13;;;31.09;67.76
21640;BME280;10981;45.462;10.974;2023-07-22T14:25:38;100352.44;;;30.80;69.15
21640;BME280;10981;45.462;10.974;2023-07-22T14:28:06;100355.41;;;30.74;68.63
21640;BME280;10981;45.462;10.974;2023-07-22T14:30:37;100356.31;;;30.37;69.00
21640;BME280;10981;45.462;10.974;2023-07-22T14:33:06;100356.16;;;30.00;68.50
21640;BME280;10981;45.462;10.974;2023-07-22T14:35:37;100351.72;;;29.84;70.15
21640;BME280;10981;45.462;10.974;2023-07-22T14:38:05;100354.50;;;29.89;70.99
21640;BME280;10981;45.462;10.974;2023-07-22T14:40:34;100354.13;;;29.80;71.01
21640;BME280;10981;45.462;10.974;2023-07-22T14:43:02;100349.75;;;29.69;70.97
21640;BME280;10981;45.462;10.974;2023-07-22T14:45:31;100354.56;;;29.62;72.95
21640;BME280;10981;45.462;10.974;2023-07-22T14:47:59;100347.13;;;29.37;71.93
21640;BME280;10981;45.462;10.974;2023-07-22T14:50:28;100361.91;;;29.34;76.30
21640;BME280;10981;45.462;10.974;2023-07-22T14:52:56;100354.94;;;29.11;71.61
21640;BME280;10981;45.462;10.974;2023-07-22T14:55:25;100354.44;;;29.14;74.67
21640;BME280;10981;45.462;10.974;2023-07-22T14:57:54;100349.50;;;29.06;74.71
21640;BME280;10981;45.462;10.974;2023-07-22T15:00:22;100351.41;;;29.05;75.66
21640;BME280;10981;45.462;10.974;2023-07-22T15:02:51;100346.22;;;28.98;77.00
21640;BME280;10981;45.462;10.974;2023-07-22T15:05:20;100344.25;;;28.89;78.15
21640;BME280;10981;45.462;10.974;2023-07-22T15:07:48;100337.66;;;28.74;77.85
21640;BME280;10981;45.462;10.974;2023-07-22T15:10:16;100339.47;;;28.68;75.50
21640;BME280;10981;45.462;10.974;2023-07-22T15:12:45;100332.22;;;28.69;75.03
21640;BME280;10981;45.462;10.974;2023-07-22T15:15:13;100333.19;;;28.63;77.39
21640;BME280;10981;45.462;10.974;2023-07-22T15:17:41;100333.38;;;28.56;77.54
21640;BME280;10981;45.462;10.974;2023-07-22T15:20:12;100338.34;;;28.42;79.86
21640;BME280;10981;45.462;10.974;2023-07-22T15:22:40;100335.84;;;28.35;79.62
21640;BME280;10981;45.462;10.974;2023-07-22T15:25:09;100325.72;;;28.20;78.54
21640;BME280;10981;45.462;10.974;2023-07-22T15:27:38;100335.84;;;28.13;80.25
21640;BME280;10981;45.462;10.974;2023-07-22T15:30:06;100331.78;;;28.11;81.80
21640;BME280;10981;45.462;10.974;2023-07-22T15:32:35;100332.25;;;28.08;80.76
21640;BME280;10981;45.462;10.974;2023-07-22T15:35:04;100328.50;;;28.09;81.36
21640;BME280;10981;45.462;10.974;2023-07-22T15:37:32;100326.88;;;28.08;81.99
21640;BME280;10981;45.462;10.974;2023-07-22T15:40:02;100328.03;;;28.12;82.37
21640;BME280;10981;45.462;10.974;2023-07-22T15:42:31;100335.47;;;28.04;78.78
21640;BME280;10981;45.462;10.974;2023-07-22T15:45:00;100333.25;;;28.01;83.04
21640;BME280;10981;45.462;10.974;2023-07-22T15:47:31;100334.56;;;27.99;82.27
21640;BME280;10981;45.462;10.974;2023-07-22T15:49:59;100325.34;;;27.95;83.80
21640;BME280;10981;45.462;10.974;2023-07-22T15:52:27;100327.16;;;27.89;87.46
21640;BME280;10981;45.462;10.974;2023-07-22T15:54:55;100326.34;;;27.88;83.06
21640;BME280;10981;45.462;10.974;2023-07-22T15:57:24;100333.28;;;27.84;81.73
21640;BME280;10981;45.462;10.974;2023-07-22T15:59:52;100329.19;;;27.82;84.96
21640;BME280;10981;45.462;10.974;2023-07-22T16:02:20;100326.44;;;27.77;82.18
21640;BME280;10981;45.462;10.974;2023-07-22T16:04:49;100322.13;;;27.76;84.93
21640;BME280;10981;45.462;10.974;2023-07-22T16:07:18;100326.06;;;27.68;87.86
21640;BME280;10981;45.462;10.974;2023-07-22T16:09:46;100322.16;;;27.59;85.63
21640;BME280;10981;45.462;10.974;2023-07-22T16:12:18;100325.91;;;27.57;89.97
21640;BME280;10981;45.462;10.974;2023-07-22T16:14:46;100324.53;;;27.55;86.95
21640;BME280;10981;45.462;10.974;2023-07-22T16:17:15;100327.47;;;27.53;86.12
21640;BME280;10981;45.462;10.974;2023-07-22T16:19:43;100328.50;;;27.52;87.65
21640;BME280;10981;45.462;10.974;2023-07-22T16:22:11;100326.06;;;27.51;90.61
21640;BME280;10981;45.462;10.974;2023-07-22T16:24:40;100323.88;;;27.48;87.46
21640;BME280;10981;45.462;10.974;2023-07-22T16:27:08;100318.41;;;27.60;87.54
21640;BME280;10981;45.462;10.974;2023-07-22T16:29:36;100316.28;;;27.62;87.28
21640;BME280;10981;45.462;10.974;2023-07-22T16:32:05;100317.66;;;27.64;91.99
21640;BME280;10981;45.462;10.974;2023-07-22T16:34:35;100323.78;;;27.60;89.78
21640;BME280;10981;45.462;10.974;2023-07-22T16:37:04;100325.03;;;27.52;87.02
21640;BME280;10981;45.462;10.974;2023-07-22T16:39:33;100327.94;;;27.50;90.87
21640;BME280;10981;45.462;10.974;2023-07-22T16:42:01;100321.19;;;27.48;90.54
21640;BME280;10981;45.462;10.974;2023-07-22T16:44:30;100325.75;;;27.47;91.74
21640;BME280;10981;45.462;10.974;2023-07-22T16:46:58;100325.69;;;27.42;89.95
21640;BME280;10981;45.462;10.974;2023-07-22T16:49:29;100332.34;;;27.39;92.53
21640;BME280;10981;45.462;10.974;2023-07-22T16:51:58;100326.88;;;27.34;89.61
21640;BME280;10981;45.462;10.974;2023-07-22T16:54:26;100321.97;;;27.31;92.01
21640;BME280;10981;45.462;10.974;2023-07-22T16:56:57;100324.81;;;27.24;92.42
21640;BME280;10981;45.462;10.974;2023-07-22T16:59:26;100325.78;;;27.18;90.47
21640;BME280;10981;45.462;10.974;2023-07-22T17:01:54;100326.75;;;27.12;94.48
21640;BME280;10981;45.462;10.974;2023-07-22T17:04:23;100324.56;;;27.09;97.08
21640;BME280;10981;45.462;10.974;2023-07-22T17:06:51;100319.63;;;27.01;98.04
21640;BME280;10981;45.462;10.974;2023-07-22T17:09:19;100320.78;;;26.93;98.19
21640;BME280;10981;45.462;10.974;2023-07-22T17:11:49;100322.00;;;26.85;97.84
21640;BME280;10981;45.462;10.974;2023-07-22T17:14:17;100322.50;;;26.82;94.59
21640;BME280;10981;45.462;10.974;2023-07-22T17:16:47;100319.31;;;26.85;96.71
21640;BME280;10981;45.462;10.974;2023-07-22T17:19:15;100315.69;;;26.91;97.55
21640;BME280;10981;45.462;10.974;2023-07-22T17:21:46;100313.66;;;26.99;98.70
21640;BME280;10981;45.462;10.974;2023-07-22T17:24:14;100314.00;;;27.02;95.69
21640;BME280;10981;45.462;10.974;2023-07-22T17:26:43;100318.06;;;27.05;99.36
21640;BME280;10981;45.462;10.974;2023-07-22T17:29:11;100319.91;;;27.04;95.29
21640;BME280;10981;45.462;10.974;2023-07-22T17:31:39;100316.44;;;27.04;95.98
21640;BME280;10981;45.462;10.974;2023-07-22T17:34:08;100313.75;;;27.04;99.30
21640;BME280;10981;45.462;10.974;2023-07-22T17:36:36;100321.56;;;27.05;97.57
21640;BME280;10981;45.462;10.974;2023-07-22T17:39:04;100321.47;;;27.00;100.00
21640;BME280;10981;45.462;10.974;2023-07-22T17:41:33;100333.41;;;26.92;100.00
21640;BME280;10981;45.462;10.974;2023-07-22T17:44:01;100330.88;;;26.86;100.00
21640;BME280;10981;45.462;10.974;2023-07-22T17:46:30;100332.44;;;26.82;100.00
21640;BME280;10981;45.462;10.974;2023-07-22T17:48:58;100335.81;;;26.77;100.00
21640;BME280;10981;45.462;10.974;2023-07-22T17:51:26;100334.31;;;26.69;100.00
21640;BME280;10981;45.462;10.974;2023-07-22T17:53:55;100334.94;;;26.59;100.00
21640;BME280;10981;45.462;10.974;2023-07-22T17:56:24;100338.00;;;26.51;100.00
21640;BME280;10981;45.462;10.974;2023-07-22T17:58:52;100336.63;;;26.49;100.00
21640;BME280;10981;45.462;10.974;2023-07-22T18:01:20;100335.44;;;26.44;100.00
21640;BME280;10981;45.462;10.974;2023-07-22T18:03:48;100340.09;;;26.49;100.00
21640;BME280;10981;45.462;10.974;2023-07-22T18:06:20;100339.59;;;26.52;100.00
21640;BME280;10981;45.462;10.974;2023-07-22T18:08:53;100343.59;;;26.50;100.00
21640;BME280;10981;45.462;10.974;2023-07-22T18:11:21;100344.41;;;26.50;100.00
21640;BME280;10981;45.462;10.974;2023-07-22T18:13:50;100348.94;;;26.50;100.00
21640;BME280;10981;45.462;10.974;2023-07-22T18:16:18;100351.06;;;26.48;100.00
21640;BME280;10981;45.462;10.974;2023-07-22T18:18:47;100354.81;;;26.47;100.00
21640;BME280;10981;45.462;10.974;2023-07-22T18:21:15;100350.13;;;26.42;100.00
21640;BME280;10981;45.462;10.974;2023-07-22T18:23:43;100356.59;;;26.29;100.00
21640;BME280;10981;45.462;10.974;2023-07-22T18:26:11;100359.28;;;26.17;100.00
21640;BME280;10981;45.462;10.974;2023-07-22T18:28:40;100362.31;;;25.97;100.00
21640;BME280;10981;45.462;10.974;2023-07-22T18:31:08;100360.56;;;25.79;100.00
21640;BME280;10981;45.462;10.974;2023-07-22T18:33:37;100358.22;;;25.59;100.00
21640;BME280;10981;45.462;10.974;2023-07-22T18:36:05;100359.00;;;25.36;100.00
21640;BME280;10981;45.462;10.974;2023-07-22T18:38:34;100363.97;;;25.20;100.00
21640;BME280;10981;45.462;10.974;2023-07-22T18:41:02;100375.69;;;25.07;100.00
21640;BME280;10981;45.462;10.974;2023-07-22T18:43:33;100370.25;;;24.95;100.00
21640;BME280;10981;45.462;10.974;2023-07-22T18:46:01;100372.06;;;24.83;100.00
21640;BME280;10981;45.462;10.974;2023-07-22T18:48:30;100375.53;;;24.72;100.00
21640;BME280;10981;45.462;10.974;2023-07-22T18:50:58;100377.66;;;24.63;100.00
21640;BME280;10981;45.462;10.974;2023-07-22T18:53:26;100384.56;;;24.52;100.00
21640;BME280;10981;45.462;10.974;2023-07-22T18:55:54;100386.94;;;24.42;100.00
21640;BME280;10981;45.462;10.974;2023-07-22T18:58:23;100393.03;;;24.30;100.00
21640;BME280;10981;45.462;10.974;2023-07-22T19:00:51;100394.94;;;24.23;100.00
21640;BME280;10981;45.462;10.974;2023-07-22T19:03:19;100399.78;;;24.14;100.00
21640;BME280;10981;45.462;10.974;2023-07-22T19:05:50;100398.81;;;24.09;100.00
21640;BME280;10981;45.462;10.974;2023-07-22T19:08:23;100408.31;;;24.05;100.00
21640;BME280;10981;45.462;10.974;2023-07-22T19:10:52;100406.28;;;24.00;100.00
21640;BME280;10981;45.462;10.974;2023-07-22T19:13:21;100406.13;;;23.95;100.00
21640;BME280;10981;45.462;10.974;2023-07-22T19:15:53;100412.94;;;23.91;100.00
21640;BME280;10981;45.462;10.974;2023-07-22T19:18:25;100419.50;;;23.88;100.00
21640;BME280;10981;45.462;10.974;2023-07-22T19:20:58;100427.94;;;23.85;100.00
21640;BME280;10981;45.462;10.974;2023-07-22T19:23:27;100424.31;;;23.79;100.00
21640;BME280;10981;45.462;10.974;2023-07-22T19:25:56;100441.19;;;23.73;100.00
21640;BME280;10981;45.462;10.974;2023-07-22T19:28:25;100436.72;;;23.67;100.00
21640;BME280;10981;45.462;10.974;2023-07-22T19:30:57;100442.34;;;23.59;100.00
21640;BME280;10981;45.462;10.974;2023-07-22T19:33:26;100438.25;;;23.56;100.00
21640;BME280;10981;45.462;10.974;2023-07-22T19:36:15;100439.09;;;23.50;100.00
21640;BME280;10981;45.462;10.974;2023-07-22T19:38:43;100442.63;;;23.44;100.00
21640;BME280;10981;45.462;10.974;2023-07-22T19:41:13;100452.91;;;23.40;100.00
21640;BME280;10981;45.462;10.974;2023-07-22T19:43:42;100459.72;;;23.36;100.00
21640;BME280;10981;45.462;10.974;2023-07-22T19:46:13;100467.78;;;23.29;100.00
21640;BME280;10981;45.462;10.974;2023-07-22T19:48:43;100470.47;;;23.23;100.00
21640;BME280;10981;45.462;10.974;2023-07-22T19:51:12;100472.34;;;23.15;100.00
21640;BME280;10981;45.462;10.974;2023-07-22T19:53:45;100470.69;;;23.14;100.00
21640;BME280;10981;45.462;10.974;2023-07-22T19:56:14;100471.53;;;23.08;100.00
21640;BME280;10981;45.462;10.974;2023-07-22T19:58:45;100469.47;;;23.03;100.00
21640;BME280;10981;45.462;10.974;2023-07-22T20:01:13;100478.94;;;22.99;100.00
21640;BME280;10981;45.462;10.974;2023-07-22T20:03:44;100492.28;;;22.99;100.00
21640;BME280;10981;45.462;10.974;2023-07-22T20:06:13;100481.03;;;22.97;100.00
21640;BME280;10981;45.462;10.974;2023-07-22T20:08:41;100482.06;;;22.96;100.00
21640;BME280;10981;45.462;10.974;2023-07-22T20:11:09;100479.78;;;22.93;100.00
21640;BME280;10981;45.462;10.974;2023-07-22T20:13:38;100493.56;;;22.90;100.00
21640;BME280;10981;45.462;10.974;2023-07-22T20:16:06;100488.44;;;22.89;100.00
21640;BME280;10981;45.462;10.974;2023-07-22T20:18:34;100488.63;;;22.87;100.00
21640;BME280;10981;45.462;10.974;2023-07-22T20:21:06;100493.38;;;22.85;100.00
21640;BME280;10981;45.462;10.974;2023-07-22T20:23:34;100499.09;;;22.82;100.00
21640;BME280;10981;45.462;10.974;2023-07-22T20:26:02;100493.59;;;22.83;100.00